createdAt,value
2017-12-04T00:00:42.810Z,1018.22
2017-12-04T00:01:44.971Z,1018.25
2017-12-04T00:02:42.831Z,1018.19
2017-12-04T00:03:42.931Z,1018.15
2017-12-04T00:04:42.827Z,1018.23
2017-12-04T00:05:42.947Z,1018.22
2017-12-04T00:06:42.828Z,1018.15
2017-12-04T00:07:45.025Z,1018.17
2017-12-04T00:08:42.843Z,1018.12
2017-12-04T00:09:42.855Z,1018.19
2017-12-04T00:10:42.981Z,1018.17
2017-12-04T00:11:42.847Z,1018.14
2017-12-04T00:12:43.030Z,1018.11
2017-12-04T00:13:42.856Z,1018.17
2017-12-04T00:14:44.032Z,1018.09
2017-12-04T00:15:42.879Z,1018.15
2017-12-04T00:16:43.017Z,1018.16
2017-12-04T00:17:42.871Z,1018.22
2017-12-04T00:18:43.033Z,1018.20
2017-12-04T00:19:42.881Z,1018.20
2017-12-04T00:20:43.053Z,1018.13
2017-12-04T00:21:42.896Z,1018.19
2017-12-04T00:22:44.083Z,1018.13
2017-12-04T00:23:42.917Z,1018.07
2017-12-04T00:24:43.072Z,1018.16
2017-12-04T00:25:42.895Z,1018.21
2017-12-04T00:26:45.030Z,1018.30
2017-12-04T00:27:42.903Z,1018.30
2017-12-04T00:28:43.117Z,1018.27
2017-12-04T00:29:42.919Z,1018.27
2017-12-04T00:30:42.924Z,1018.30
2017-12-04T00:31:42.943Z,1018.32
2017-12-04T00:32:42.919Z,1018.32
2017-12-04T00:33:44.052Z,1018.36
2017-12-04T00:34:42.932Z,1018.34
2017-12-04T00:35:43.039Z,1018.29
2017-12-04T00:36:42.977Z,1018.27
2017-12-04T00:37:43.058Z,1018.31
2017-12-04T00:38:42.956Z,1018.32
2017-12-04T00:39:43.068Z,1018.23
2017-12-04T00:40:42.975Z,1018.28
2017-12-04T00:41:43.079Z,1018.31
2017-12-04T00:42:42.982Z,1018.35
2017-12-04T00:43:43.099Z,1018.35
2017-12-04T00:44:43.154Z,1018.36
2017-12-04T00:45:43.114Z,1018.35
2017-12-04T00:46:42.986Z,1018.37
2017-12-04T00:47:48.652Z,1018.39
2017-12-04T00:48:42.978Z,1018.41
2017-12-04T00:49:43.147Z,1018.45
2017-12-04T00:50:43.007Z,1018.42
2017-12-04T00:51:44.175Z,1018.43
2017-12-04T00:52:43.011Z,1018.42
2017-12-04T00:53:45.109Z,1018.51
2017-12-04T00:54:43.004Z,1018.40
2017-12-04T00:55:43.179Z,1018.37
2017-12-04T00:56:43.022Z,1018.46
2017-12-04T00:57:44.216Z,1018.38
2017-12-04T00:58:43.020Z,1018.44
2017-12-04T00:59:43.204Z,1018.45
2017-12-04T01:00:43.025Z,1018.46
2017-12-04T01:01:44.134Z,1018.45
2017-12-04T01:02:43.033Z,1018.48
2017-12-04T01:03:43.233Z,1018.41
2017-12-04T01:04:43.039Z,1018.38
2017-12-04T01:05:49.183Z,1018.37
2017-12-04T01:06:43.052Z,1018.38
2017-12-04T01:07:43.258Z,1018.35
2017-12-04T01:08:43.074Z,1018.34
2017-12-04T01:09:43.171Z,1018.33
2017-12-04T01:10:43.071Z,1018.32
2017-12-04T01:11:43.192Z,1018.27
2017-12-04T01:12:43.085Z,1018.23
2017-12-04T01:13:44.220Z,1018.28
2017-12-04T01:14:43.087Z,1018.36
2017-12-04T01:15:49.153Z,1018.48
2017-12-04T01:16:43.089Z,1018.45
2017-12-04T01:17:43.229Z,1018.47
2017-12-04T01:18:43.090Z,1018.46
2017-12-04T01:19:45.287Z,1018.57
2017-12-04T01:20:44.020Z,1018.48
2017-12-04T01:21:48.172Z,1018.54
2017-12-04T01:22:43.127Z,1018.50
2017-12-04T01:23:43.293Z,1018.55
2017-12-04T01:24:43.131Z,1018.59
2017-12-04T01:25:44.321Z,1018.54
2017-12-04T01:26:43.120Z,1018.53
2017-12-04T01:27:43.294Z,1018.53
2017-12-04T01:28:43.131Z,1018.59
2017-12-04T01:29:43.335Z,1018.59
2017-12-04T01:30:43.149Z,1018.55
2017-12-04T01:31:48.234Z,1018.60
2017-12-04T01:32:43.147Z,1018.63
2017-12-04T01:33:43.341Z,1018.59
2017-12-04T01:34:43.163Z,1018.60
2017-12-04T01:35:43.357Z,1018.61
2017-12-04T01:36:43.163Z,1018.57
2017-12-04T01:37:43.359Z,1018.55
2017-12-04T01:38:43.160Z,1018.56
2017-12-04T01:39:43.365Z,1018.55
2017-12-04T01:40:43.170Z,1018.46
2017-12-04T01:41:43.178Z,1018.45
2017-12-04T01:42:43.193Z,1018.41
2017-12-04T01:43:43.184Z,1018.45
2017-12-04T01:44:43.192Z,1018.49
2017-12-04T01:45:43.196Z,1018.43
2017-12-04T01:46:43.202Z,1018.46
2017-12-04T01:47:43.201Z,1018.36
2017-12-04T01:48:43.325Z,1018.42
2017-12-04T01:49:43.211Z,1018.51
2017-12-04T01:50:43.276Z,1018.53
2017-12-04T01:51:43.215Z,1018.53
2017-12-04T01:52:43.222Z,1018.52
2017-12-04T01:53:44.334Z,1018.55
2017-12-04T01:54:43.229Z,1018.58
2017-12-04T01:55:43.312Z,1018.64
2017-12-04T01:56:43.242Z,1018.62
2017-12-04T01:57:43.329Z,1018.63
2017-12-04T01:58:43.250Z,1018.53
2017-12-04T01:59:43.338Z,1018.60
2017-12-04T02:00:43.266Z,1018.57
2017-12-04T02:01:43.268Z,1018.56
2017-12-04T02:02:43.360Z,1018.53
2017-12-04T02:03:44.028Z,1018.55
2017-12-04T02:04:43.369Z,1018.51
2017-12-04T02:05:43.276Z,1018.54
2017-12-04T02:06:43.277Z,1018.52
2017-12-04T02:07:44.412Z,1018.54
2017-12-04T02:08:43.279Z,1018.56
2017-12-04T02:09:43.417Z,1018.50
2017-12-04T02:10:43.278Z,1018.48
2017-12-04T02:11:44.440Z,1018.50
2017-12-04T02:12:43.300Z,1018.57
2017-12-04T02:13:45.388Z,1018.53
2017-12-04T02:14:43.299Z,1018.54
2017-12-04T02:15:44.669Z,1018.51
2017-12-04T02:16:43.303Z,1018.56
2017-12-04T02:17:43.465Z,1018.57
2017-12-04T02:18:43.309Z,1018.61
2017-12-04T02:19:44.401Z,1018.63
2017-12-04T02:20:43.327Z,1018.61
2017-12-04T02:21:43.388Z,1018.65
2017-12-04T02:22:43.328Z,1018.60
2017-12-04T02:23:43.414Z,1018.62
2017-12-04T02:24:43.337Z,1018.58
2017-12-04T02:25:43.413Z,1018.58
2017-12-04T02:26:43.362Z,1018.54
2017-12-04T02:27:43.429Z,1018.53
2017-12-04T02:28:43.350Z,1018.58
2017-12-04T02:29:43.447Z,1018.52
2017-12-04T02:30:43.356Z,1018.59
2017-12-04T02:31:43.456Z,1018.58
2017-12-04T02:32:43.367Z,1018.64
2017-12-04T02:33:43.468Z,1018.58
2017-12-04T02:34:43.376Z,1018.57
2017-12-04T02:35:43.490Z,1018.59
2017-12-04T02:36:43.386Z,1018.58
2017-12-04T02:37:43.496Z,1018.58
2017-12-04T02:38:43.404Z,1018.59
2017-12-04T02:39:43.515Z,1018.50
2017-12-04T02:40:43.392Z,1018.52
2017-12-04T02:41:43.394Z,1018.48
2017-12-04T02:42:43.538Z,1018.47
2017-12-04T02:43:43.407Z,1018.56
2017-12-04T02:44:43.411Z,1018.54
2017-12-04T02:45:43.408Z,1018.60
2017-12-04T02:46:43.420Z,1018.54
2017-12-04T02:47:43.572Z,1018.58
2017-12-04T02:48:43.432Z,1018.60
2017-12-04T02:49:44.614Z,1018.67
2017-12-04T02:50:43.436Z,1018.68
2017-12-04T02:51:43.595Z,1018.74
2017-12-04T02:52:43.436Z,1018.73
2017-12-04T02:53:43.618Z,1018.72
2017-12-04T02:54:43.455Z,1018.71
2017-12-04T02:55:43.620Z,1018.67
2017-12-04T02:56:43.453Z,1018.64
2017-12-04T02:57:43.526Z,1018.62
2017-12-04T02:58:43.471Z,1018.63
2017-12-04T02:59:43.550Z,1018.68
2017-12-04T03:00:43.479Z,1018.71
2017-12-04T03:01:43.564Z,1018.63
2017-12-04T03:02:43.490Z,1018.71
2017-12-04T03:03:43.570Z,1018.71
2017-12-04T03:04:43.504Z,1018.68
2017-12-04T03:05:44.551Z,1018.72
2017-12-04T03:06:43.498Z,1018.64
2017-12-04T03:07:43.600Z,1018.72
2017-12-04T03:08:43.497Z,1018.68
2017-12-04T03:09:45.666Z,1018.67
2017-12-04T03:10:43.521Z,1018.65
2017-12-04T03:11:43.628Z,1018.65
2017-12-04T03:12:43.518Z,1018.64
2017-12-04T03:13:43.638Z,1018.61
2017-12-04T03:14:43.513Z,1018.62
2017-12-04T03:15:43.650Z,1018.62
2017-12-04T03:16:43.525Z,1018.68
2017-12-04T03:17:43.662Z,1018.64
2017-12-04T03:18:43.546Z,1018.64
2017-12-04T03:19:43.681Z,1018.63
2017-12-04T03:20:43.537Z,1018.61
2017-12-04T03:21:44.712Z,1018.69
2017-12-04T03:22:43.555Z,1018.66
2017-12-04T03:23:43.557Z,1018.63
2017-12-04T03:24:43.702Z,1018.65
2017-12-04T03:25:43.569Z,1018.67
2017-12-04T03:26:43.717Z,1018.66
2017-12-04T03:27:43.585Z,1018.73
2017-12-04T03:28:43.748Z,1018.72
2017-12-04T03:29:43.585Z,1018.71
2017-12-04T03:30:43.576Z,1018.70
2017-12-04T03:31:43.603Z,1018.70
2017-12-04T03:32:43.596Z,1018.73
2017-12-04T03:33:44.695Z,1018.73
2017-12-04T03:34:43.601Z,1018.74
2017-12-04T03:35:43.781Z,1018.73
2017-12-04T03:36:43.605Z,1018.73
2017-12-04T03:37:43.601Z,1018.71
2017-12-04T03:38:43.627Z,1018.72
2017-12-04T03:39:43.709Z,1018.67
2017-12-04T03:40:43.631Z,1018.69
2017-12-04T03:41:43.627Z,1018.64
2017-12-04T03:42:43.727Z,1018.65
2017-12-04T03:43:43.629Z,1018.69
2017-12-04T03:44:43.742Z,1018.65
2017-12-04T03:45:43.663Z,1018.65
2017-12-04T03:46:44.790Z,1018.67
2017-12-04T03:47:43.654Z,1018.70
2017-12-04T03:48:43.774Z,1018.69
2017-12-04T03:49:43.657Z,1018.70
2017-12-04T03:50:43.783Z,1018.63
2017-12-04T03:51:43.663Z,1018.66
2017-12-04T03:52:43.655Z,1018.64
2017-12-04T03:53:43.807Z,1018.68
2017-12-04T03:54:43.684Z,1018.68
2017-12-04T03:55:43.690Z,1018.70
2017-12-04T03:56:43.677Z,1018.71
2017-12-04T03:57:43.825Z,1018.68
2017-12-04T03:58:43.680Z,1018.68
2017-12-04T03:59:44.861Z,1018.70
2017-12-04T04:00:43.702Z,1018.69
2017-12-04T04:01:43.879Z,1018.67
2017-12-04T04:02:43.698Z,1018.66
2017-12-04T04:03:43.871Z,1018.70
2017-12-04T04:04:43.705Z,1018.74
2017-12-04T04:05:44.914Z,1018.71
2017-12-04T04:06:43.714Z,1018.73
2017-12-04T04:07:43.898Z,1018.72
2017-12-04T04:08:43.721Z,1018.74
2017-12-04T04:09:43.910Z,1018.74
2017-12-04T04:10:43.732Z,1018.74
2017-12-04T04:11:43.926Z,1018.71
2017-12-04T04:12:43.746Z,1018.73
2017-12-04T04:13:44.873Z,1018.72
2017-12-04T04:14:43.746Z,1018.74
2017-12-04T04:15:43.850Z,1018.80
2017-12-04T04:16:43.753Z,1018.79
2017-12-04T04:17:43.875Z,1018.76
2017-12-04T04:18:43.763Z,1018.79
2017-12-04T04:19:43.877Z,1018.77
2017-12-04T04:20:43.772Z,1018.75
2017-12-04T04:21:43.891Z,1018.76
2017-12-04T04:22:43.773Z,1018.80
2017-12-04T04:23:45.991Z,1018.75
2017-12-04T04:24:43.783Z,1018.73
2017-12-04T04:25:43.791Z,1018.77
2017-12-04T04:26:43.925Z,1018.71
2017-12-04T04:27:43.798Z,1018.76
2017-12-04T04:28:43.798Z,1018.76
2017-12-04T04:29:43.814Z,1018.75
2017-12-04T04:30:43.812Z,1018.78
2017-12-04T04:31:43.970Z,1018.80
2017-12-04T04:32:43.818Z,1018.85
2017-12-04T04:33:43.990Z,1018.80
2017-12-04T04:34:43.836Z,1018.78
2017-12-04T04:35:43.823Z,1018.79
2017-12-04T04:36:43.986Z,1018.72
2017-12-04T04:37:43.830Z,1018.76
2017-12-04T04:38:44.007Z,1018.80
2017-12-04T04:39:43.836Z,1018.72
2017-12-04T04:40:44.025Z,1018.72
2017-12-04T04:41:43.851Z,1018.73
2017-12-04T04:42:44.868Z,1018.77
2017-12-04T04:43:43.859Z,1018.76
2017-12-04T04:44:44.051Z,1018.71
2017-12-04T04:45:43.874Z,1018.67
2017-12-04T04:46:44.068Z,1018.71
2017-12-04T04:47:43.875Z,1018.69
2017-12-04T04:48:44.080Z,1018.67
2017-12-04T04:49:43.884Z,1018.67
2017-12-04T04:50:43.893Z,1018.69
2017-12-04T04:51:44.092Z,1018.70
2017-12-04T04:52:43.900Z,1018.69
2017-12-04T04:53:43.907Z,1018.74
2017-12-04T04:54:43.898Z,1018.76
2017-12-04T04:55:44.024Z,1018.77
2017-12-04T04:56:43.913Z,1018.83
2017-12-04T04:57:43.913Z,1018.82
2017-12-04T04:58:43.912Z,1018.89
2017-12-04T04:59:44.059Z,1018.88
2017-12-04T05:00:43.920Z,1018.84
2017-12-04T05:01:44.070Z,1018.79
2017-12-04T05:02:43.925Z,1018.84
2017-12-04T05:03:43.925Z,1018.85
2017-12-04T05:04:43.939Z,1018.87
2017-12-04T05:05:44.090Z,1018.87
2017-12-04T05:06:43.955Z,1018.85
2017-12-04T05:07:44.100Z,1018.87
2017-12-04T05:08:43.951Z,1018.93
2017-12-04T05:09:44.113Z,1018.91
2017-12-04T05:10:43.972Z,1018.88
2017-12-04T05:11:43.955Z,1018.83
2017-12-04T05:12:43.958Z,1018.84
2017-12-04T05:13:44.140Z,1018.83
2017-12-04T05:14:43.966Z,1018.87
2017-12-04T05:15:43.969Z,1018.87
2017-12-04T05:16:44.171Z,1018.95
2017-12-04T05:17:43.986Z,1018.96
2017-12-04T05:18:44.197Z,1018.91
2017-12-04T05:19:44.000Z,1018.93
2017-12-04T05:20:43.994Z,1018.92
2017-12-04T05:21:44.201Z,1018.95
2017-12-04T05:22:44.003Z,1018.94
2017-12-04T05:23:44.215Z,1018.95
2017-12-04T05:24:44.017Z,1018.95
2017-12-04T05:25:45.330Z,1018.96
2017-12-04T05:26:44.030Z,1018.94
2017-12-04T05:27:44.042Z,1019.00
2017-12-04T05:28:44.262Z,1018.97
2017-12-04T05:29:44.054Z,1018.99
2017-12-04T05:30:44.049Z,1019.00
2017-12-04T05:31:44.052Z,1018.99
2017-12-04T05:32:44.073Z,1018.99
2017-12-04T05:33:44.047Z,1018.97
2017-12-04T05:34:44.077Z,1018.94
2017-12-04T05:35:44.051Z,1018.96
2017-12-04T05:36:44.068Z,1018.93
2017-12-04T05:37:44.078Z,1019.01
2017-12-04T05:38:44.107Z,1019.00
2017-12-04T05:39:44.078Z,1018.97
2017-12-04T05:40:44.121Z,1019.06
2017-12-04T05:41:44.073Z,1019.01
2017-12-04T05:42:44.082Z,1019.03
2017-12-04T05:43:44.160Z,1019.05
2017-12-04T05:44:44.091Z,1019.06
2017-12-04T05:45:44.156Z,1019.10
2017-12-04T05:46:44.098Z,1019.07
2017-12-04T05:47:44.148Z,1019.04
2017-12-04T05:48:44.090Z,1019.00
2017-12-04T05:49:44.102Z,1019.01
2017-12-04T05:50:44.190Z,1018.96
2017-12-04T05:51:44.113Z,1018.96
2017-12-04T05:52:44.215Z,1018.90
2017-12-04T05:53:44.119Z,1018.93
2017-12-04T05:54:44.220Z,1018.91
2017-12-04T05:55:44.130Z,1018.94
2017-12-04T05:56:45.252Z,1018.96
2017-12-04T05:57:44.143Z,1018.92
2017-12-04T05:58:44.240Z,1018.99
2017-12-04T05:59:44.158Z,1018.98
2017-12-04T06:00:44.258Z,1018.98
2017-12-04T06:01:44.161Z,1018.97
2017-12-04T06:02:44.156Z,1019.02
2017-12-04T06:03:44.165Z,1019.04
2017-12-04T06:04:44.286Z,1019.04
2017-12-04T06:05:44.169Z,1019.07
2017-12-04T06:06:44.306Z,1018.98
2017-12-04T06:07:44.177Z,1019.08
2017-12-04T06:08:44.181Z,1019.08
2017-12-04T06:09:44.318Z,1019.10
2017-12-04T06:10:44.190Z,1019.14
2017-12-04T06:11:44.238Z,1019.11
2017-12-04T06:12:44.198Z,1019.09
2017-12-04T06:13:44.250Z,1019.13
2017-12-04T06:14:44.205Z,1019.12
2017-12-04T06:15:44.252Z,1019.15
2017-12-04T06:16:44.210Z,1019.13
2017-12-04T06:17:44.264Z,1019.19
2017-12-04T06:18:44.213Z,1019.16
2017-12-04T06:19:44.284Z,1019.23
2017-12-04T06:20:44.234Z,1019.20
2017-12-04T06:21:45.326Z,1019.18
2017-12-04T06:22:44.234Z,1019.25
2017-12-04T06:23:46.353Z,1019.28
2017-12-04T06:24:44.234Z,1019.32
2017-12-04T06:25:44.243Z,1019.30
2017-12-04T06:26:44.329Z,1019.34
2017-12-04T06:27:44.247Z,1019.37
2017-12-04T06:28:44.246Z,1019.39
2017-12-04T06:29:44.249Z,1019.37
2017-12-04T06:30:45.382Z,1019.41
2017-12-04T06:31:44.264Z,1019.47
2017-12-04T06:32:44.370Z,1019.46
2017-12-04T06:33:44.267Z,1019.44
2017-12-04T06:34:44.384Z,1019.42
2017-12-04T06:35:44.281Z,1019.43
2017-12-04T06:36:44.404Z,1019.47
2017-12-04T06:37:44.293Z,1019.48
2017-12-04T06:38:44.409Z,1019.43
2017-12-04T06:39:44.295Z,1019.49
2017-12-04T06:40:44.419Z,1019.49
2017-12-04T06:41:44.324Z,1019.50
2017-12-04T06:42:44.316Z,1019.49
2017-12-04T06:43:44.322Z,1019.53
2017-12-04T06:44:44.308Z,1019.55
2017-12-04T06:45:44.468Z,1019.52
2017-12-04T06:46:44.321Z,1019.55
2017-12-04T06:47:44.469Z,1019.52
2017-12-04T06:48:44.325Z,1019.48
2017-12-04T06:49:44.336Z,1019.47
2017-12-04T06:50:44.340Z,1019.53
2017-12-04T06:51:44.350Z,1019.51
2017-12-04T06:52:44.383Z,1019.50
2017-12-04T06:53:44.349Z,1019.57
2017-12-04T06:54:45.056Z,1019.50
2017-12-04T06:55:44.353Z,1019.50
2017-12-04T06:56:44.356Z,1019.56
2017-12-04T06:57:44.360Z,1019.57
2017-12-04T06:58:44.449Z,1019.58
2017-12-04T06:59:44.381Z,1019.63
2017-12-04T07:00:44.457Z,1019.63
2017-12-04T07:01:44.384Z,1019.60
2017-12-04T07:02:44.469Z,1019.67
2017-12-04T07:03:44.390Z,1019.66
2017-12-04T07:04:44.485Z,1019.66
2017-12-04T07:05:44.404Z,1019.68
2017-12-04T07:06:44.498Z,1019.64
2017-12-04T07:07:44.402Z,1019.61
2017-12-04T07:08:44.516Z,1019.62
2017-12-04T07:09:44.417Z,1019.67
2017-12-04T07:10:45.548Z,1019.75
2017-12-04T07:11:44.423Z,1019.75
2017-12-04T07:12:44.537Z,1019.75
2017-12-04T07:13:44.430Z,1019.76
2017-12-04T07:14:44.558Z,1019.79
2017-12-04T07:15:44.435Z,1019.76
2017-12-04T07:16:44.570Z,1019.80
2017-12-04T07:17:44.446Z,1019.79
2017-12-04T07:18:44.598Z,1019.81
2017-12-04T07:19:44.455Z,1019.89
2017-12-04T07:20:44.588Z,1019.92
2017-12-04T07:21:44.456Z,1019.89
2017-12-04T07:22:44.611Z,1019.94
2017-12-04T07:23:44.463Z,1019.89
2017-12-04T07:24:44.624Z,1019.96
2017-12-04T07:25:44.478Z,1019.95
2017-12-04T07:26:44.656Z,1019.91
2017-12-04T07:27:44.485Z,1019.86
2017-12-04T07:28:44.664Z,1019.85
2017-12-04T07:29:44.489Z,1019.89
2017-12-04T07:30:45.600Z,1019.84
2017-12-04T07:31:44.506Z,1019.89
2017-12-04T07:32:44.578Z,1019.86
2017-12-04T07:33:44.509Z,1019.93
2017-12-04T07:34:44.589Z,1019.96
2017-12-04T07:35:44.519Z,1019.98
2017-12-04T07:36:44.601Z,1019.97
2017-12-04T07:37:44.515Z,1019.99
2017-12-04T07:38:44.533Z,1020.00
2017-12-04T07:39:44.528Z,1019.94
2017-12-04T07:40:44.641Z,1019.98
2017-12-04T07:41:44.529Z,1019.98
2017-12-04T07:42:44.543Z,1020.01
2017-12-04T07:43:44.542Z,1020.07
2017-12-04T07:44:44.538Z,1020.06
2017-12-04T07:45:44.556Z,1020.05
2017-12-04T07:46:44.550Z,1020.05
2017-12-04T07:47:44.552Z,1020.05
2017-12-04T07:48:44.561Z,1019.98
2017-12-04T07:49:44.566Z,1019.96
2017-12-04T07:50:44.595Z,1019.93
2017-12-04T07:51:44.568Z,1019.98
2017-12-04T07:52:44.591Z,1020.01
2017-12-04T07:53:44.581Z,1019.96
2017-12-04T07:54:44.577Z,1020.02
2017-12-04T07:55:44.624Z,1019.96
2017-12-04T07:56:44.595Z,1020.04
2017-12-04T07:57:44.606Z,1020.04
2017-12-04T07:58:44.602Z,1019.97
2017-12-04T07:59:44.616Z,1019.98
2017-12-04T08:00:44.615Z,1019.99
2017-12-04T08:01:44.638Z,1019.97
2017-12-04T08:02:44.684Z,1019.97
2017-12-04T08:03:44.615Z,1020.01
2017-12-04T08:04:44.629Z,1020.00
2017-12-04T08:05:44.704Z,1020.02
2017-12-04T08:06:44.625Z,1019.96
2017-12-04T08:07:46.774Z,1019.99
2017-12-04T08:08:44.644Z,1020.06
2017-12-04T08:09:44.635Z,1020.02
2017-12-04T08:10:44.738Z,1020.08
2017-12-04T08:11:44.663Z,1020.08
2017-12-04T08:12:44.711Z,1020.15
2017-12-04T08:13:44.690Z,1020.22
2017-12-04T08:14:44.725Z,1020.14
2017-12-04T08:15:44.673Z,1020.13
2017-12-04T08:16:44.721Z,1020.11
2017-12-04T08:17:44.676Z,1020.13
2017-12-04T08:18:44.771Z,1020.15
2017-12-04T08:19:44.676Z,1020.10
2017-12-04T08:20:44.759Z,1020.18
2017-12-04T08:21:44.695Z,1020.19
2017-12-04T08:22:44.766Z,1020.13
2017-12-04T08:23:44.706Z,1020.13
2017-12-04T08:24:44.780Z,1020.16
2017-12-04T08:25:44.699Z,1020.17
2017-12-04T08:26:44.793Z,1020.14
2017-12-04T08:27:44.713Z,1020.19
2017-12-04T08:28:44.807Z,1020.18
2017-12-04T08:29:44.722Z,1020.15
2017-12-04T08:30:45.741Z,1020.15
2017-12-04T08:31:44.730Z,1020.14
2017-12-04T08:32:44.832Z,1020.23
2017-12-04T08:33:44.803Z,1020.25
2017-12-04T08:34:44.845Z,1020.33
2017-12-04T08:35:44.734Z,1020.37
2017-12-04T08:36:44.747Z,1020.31
2017-12-04T08:37:44.754Z,1020.30
2017-12-04T08:38:44.755Z,1020.30
2017-12-04T08:39:44.765Z,1020.39
2017-12-04T08:40:44.770Z,1020.36
2017-12-04T08:41:44.768Z,1020.40
2017-12-04T08:42:44.769Z,1020.39
2017-12-04T08:43:44.775Z,1020.39
2017-12-04T08:44:44.785Z,1020.39
2017-12-04T08:45:44.788Z,1020.43
2017-12-04T08:46:44.786Z,1020.44
2017-12-04T08:47:44.799Z,1020.46
2017-12-04T08:48:44.797Z,1020.48
2017-12-04T08:49:44.848Z,1020.55
2017-12-04T08:50:44.829Z,1020.59
2017-12-04T08:51:44.824Z,1020.56
2017-12-04T08:52:44.837Z,1020.61
2017-12-04T08:53:44.811Z,1020.60
2017-12-04T08:54:44.815Z,1020.59
2017-12-04T08:55:44.832Z,1020.65
2017-12-04T08:56:44.822Z,1020.67
2017-12-04T08:57:44.855Z,1020.66
2017-12-04T08:58:44.834Z,1020.76
2017-12-04T08:59:44.830Z,1020.75
2017-12-04T09:00:44.850Z,1020.73
2017-12-04T09:01:44.938Z,1020.73
2017-12-04T09:02:44.868Z,1020.75
2017-12-04T09:03:44.940Z,1020.77
2017-12-04T09:04:44.872Z,1020.82
2017-12-04T09:05:44.954Z,1020.87
2017-12-04T09:06:44.882Z,1020.90
2017-12-04T09:07:44.983Z,1020.87
2017-12-04T09:08:44.882Z,1020.85
2017-12-04T09:09:44.987Z,1020.87
2017-12-04T09:10:44.891Z,1020.83
2017-12-04T09:11:45.006Z,1020.90
2017-12-04T09:12:44.910Z,1020.97
2017-12-04T09:13:44.912Z,1020.90
2017-12-04T09:14:44.903Z,1020.97
2017-12-04T09:15:44.919Z,1021.01
2017-12-04T09:16:44.936Z,1021.03
2017-12-04T09:17:44.932Z,1021.02
2017-12-04T09:18:44.909Z,1021.06
2017-12-04T09:19:44.950Z,1021.09
2017-12-04T09:20:44.924Z,1021.05
2017-12-04T09:21:44.955Z,1021.04
2017-12-04T09:22:44.929Z,1021.05
2017-12-04T09:23:44.930Z,1021.07
2017-12-04T09:24:44.989Z,1021.06
2017-12-04T09:25:44.944Z,1021.05
2017-12-04T09:26:45.005Z,1021.05
2017-12-04T09:27:45.005Z,1021.10
2017-12-04T09:28:45.037Z,1021.11
2017-12-04T09:29:44.950Z,1021.13
2017-12-04T09:30:45.030Z,1021.12
2017-12-04T09:31:44.970Z,1021.13
2017-12-04T09:32:45.040Z,1021.17
2017-12-04T09:33:44.973Z,1021.20
2017-12-04T09:34:45.056Z,1021.25
2017-12-04T09:35:44.982Z,1021.23
2017-12-04T09:36:45.068Z,1021.19
2017-12-04T09:37:45.048Z,1021.21
2017-12-04T09:38:46.109Z,1021.17
2017-12-04T09:39:45.002Z,1021.20
2017-12-04T09:40:45.112Z,1021.24
2017-12-04T09:41:45.016Z,1021.20
2017-12-04T09:42:45.118Z,1021.25
2017-12-04T09:43:45.014Z,1021.21
2017-12-04T09:44:45.132Z,1021.19
2017-12-04T09:45:45.019Z,1021.24
2017-12-04T09:46:45.132Z,1021.25
2017-12-04T09:47:45.023Z,1021.22
2017-12-04T09:48:45.152Z,1021.37
2017-12-04T09:49:45.058Z,1021.34
2017-12-04T09:50:45.172Z,1021.41
2017-12-04T09:51:45.046Z,1021.40
2017-12-04T09:52:45.125Z,1021.43
2017-12-04T09:53:45.059Z,1021.41
2017-12-04T09:54:45.083Z,1021.42
2017-12-04T09:55:45.071Z,1021.48
2017-12-04T09:56:45.098Z,1021.42
2017-12-04T09:57:45.104Z,1021.46
2017-12-04T09:58:46.132Z,1021.43
2017-12-04T09:59:45.087Z,1021.41
2017-12-04T10:00:45.128Z,1021.41
2017-12-04T10:01:45.085Z,1021.39
2017-12-04T10:02:46.154Z,1021.46
2017-12-04T10:03:45.112Z,1021.41
2017-12-04T10:04:45.150Z,1021.39
2017-12-04T10:05:45.136Z,1021.45
2017-12-04T10:06:45.194Z,1021.48
2017-12-04T10:07:45.135Z,1021.48
2017-12-04T10:08:45.174Z,1021.46
2017-12-04T10:09:45.132Z,1021.48
2017-12-04T10:10:45.225Z,1021.48
2017-12-04T10:11:45.117Z,1021.40
2017-12-04T10:12:45.202Z,1021.40
2017-12-04T10:13:45.129Z,1021.38
2017-12-04T10:14:45.265Z,1021.43
2017-12-04T10:15:45.140Z,1021.40
2017-12-04T10:16:45.233Z,1021.42
2017-12-04T10:17:45.164Z,1021.41
2017-12-04T10:18:45.247Z,1021.44
2017-12-04T10:19:45.156Z,1021.42
2017-12-04T10:20:46.177Z,1021.46
2017-12-04T10:21:45.177Z,1021.46
2017-12-04T10:22:45.268Z,1021.47
2017-12-04T10:23:45.170Z,1021.45
2017-12-04T10:24:45.284Z,1021.52
2017-12-04T10:25:45.186Z,1021.58
2017-12-04T10:26:45.188Z,1021.51
2017-12-04T10:27:45.194Z,1021.56
2017-12-04T10:28:45.209Z,1021.54
2017-12-04T10:29:45.219Z,1021.52
2017-12-04T10:30:45.204Z,1021.59
2017-12-04T10:31:45.237Z,1021.60
2017-12-04T10:32:45.217Z,1021.59
2017-12-04T10:33:45.245Z,1021.52
2017-12-04T10:34:45.228Z,1021.55
2017-12-04T10:35:45.256Z,1021.50
2017-12-04T10:36:45.243Z,1021.53
2017-12-04T10:37:45.283Z,1021.49
2017-12-04T10:38:45.253Z,1021.52
2017-12-04T10:39:45.282Z,1021.51
2017-12-04T10:40:45.247Z,1021.48
2017-12-04T10:41:45.292Z,1021.50
2017-12-04T10:42:45.257Z,1021.54
2017-12-04T10:43:45.308Z,1021.48
2017-12-04T10:44:45.281Z,1021.47
2017-12-04T10:45:45.328Z,1021.51
2017-12-04T10:46:45.287Z,1021.48
2017-12-04T10:47:45.334Z,1021.49
2017-12-04T10:48:45.306Z,1021.49
2017-12-04T10:49:45.335Z,1021.51
2017-12-04T10:50:45.288Z,1021.52
2017-12-04T10:51:45.370Z,1021.50
2017-12-04T10:52:45.328Z,1021.50
2017-12-04T10:53:45.381Z,1021.48
2017-12-04T10:54:45.312Z,1021.56
2017-12-04T10:55:45.416Z,1021.49
2017-12-04T10:56:45.303Z,1021.50
2017-12-04T10:57:45.413Z,1021.53
2017-12-04T10:58:45.309Z,1021.56
2017-12-04T10:59:45.417Z,1021.56
2017-12-04T11:00:45.323Z,1021.66
2017-12-04T11:01:45.435Z,1021.68
2017-12-04T11:02:45.328Z,1021.71
2017-12-04T11:03:45.458Z,1021.68
2017-12-04T11:04:45.347Z,1021.69
2017-12-04T11:05:45.458Z,1021.68
2017-12-04T11:06:45.349Z,1021.65
2017-12-04T11:07:45.364Z,1021.69
2017-12-04T11:08:45.354Z,1021.71
2017-12-04T11:09:45.387Z,1021.69
2017-12-04T11:10:45.364Z,1021.73
2017-12-04T11:11:45.408Z,1021.72
2017-12-04T11:12:45.383Z,1021.73
2017-12-04T11:13:45.400Z,1021.78
2017-12-04T11:14:45.389Z,1021.71
2017-12-04T11:15:45.421Z,1021.79
2017-12-04T11:16:45.405Z,1021.81
2017-12-04T11:17:45.435Z,1021.73
2017-12-04T11:18:45.403Z,1021.78
2017-12-04T11:19:45.454Z,1021.74
2017-12-04T11:20:45.453Z,1021.72
2017-12-04T11:21:45.460Z,1021.67
2017-12-04T11:22:45.428Z,1021.71
2017-12-04T11:23:45.473Z,1021.70
2017-12-04T11:24:45.421Z,1021.69
2017-12-04T11:25:45.500Z,1021.72
2017-12-04T11:26:45.441Z,1021.76
2017-12-04T11:27:45.513Z,1021.71
2017-12-04T11:28:45.447Z,1021.74
2017-12-04T11:29:45.521Z,1021.73
2017-12-04T11:30:45.446Z,1021.71
2017-12-04T11:31:45.545Z,1021.74
2017-12-04T11:32:45.463Z,1021.78
2017-12-04T11:33:45.564Z,1021.73
2017-12-04T11:34:45.471Z,1021.71
2017-12-04T11:35:45.571Z,1021.76
2017-12-04T11:36:45.481Z,1021.74
2017-12-04T11:37:45.604Z,1021.69
2017-12-04T11:38:45.496Z,1021.72
2017-12-04T11:39:45.586Z,1021.72
2017-12-04T11:40:45.504Z,1021.70
2017-12-04T11:41:45.605Z,1021.70
2017-12-04T11:42:45.494Z,1021.68
2017-12-04T11:43:45.624Z,1021.70
2017-12-04T11:44:45.501Z,1021.69
2017-12-04T11:45:45.546Z,1021.71
2017-12-04T11:46:45.520Z,1021.70
2017-12-04T11:47:45.520Z,1021.68
2017-12-04T11:48:45.531Z,1021.70
2017-12-04T11:49:45.537Z,1021.70
2017-12-04T11:50:45.568Z,1021.75
2017-12-04T11:51:45.532Z,1021.75
2017-12-04T11:52:45.584Z,1021.79
2017-12-04T11:53:45.544Z,1021.77
2017-12-04T11:54:45.600Z,1021.75
2017-12-04T11:55:45.560Z,1021.76
2017-12-04T11:56:45.606Z,1021.78
2017-12-04T11:57:45.567Z,1021.74
2017-12-04T11:58:45.634Z,1021.72
2017-12-04T11:59:45.580Z,1021.72
2017-12-04T12:00:45.639Z,1021.72
2017-12-04T12:01:45.574Z,1021.67
2017-12-04T12:02:45.668Z,1021.65
2017-12-04T12:03:45.619Z,1021.67
2017-12-04T12:04:45.680Z,1021.66
2017-12-04T12:05:45.620Z,1021.69